sensor_id;sensor_type;location;lat;lon;timestamp;temperature;humidity
7472;DHT22;3777;48.722;8.110;2023-12-28T00:02:00;5.30;99.90
7472;DHT22;3777;48.722;8.110;2023-12-28T00:04:27;5.30;99.90
7472;DHT22;3777;48.722;8.110;2023-12-28T00:06:56;5.30;99.90
7472;DHT22;3777;48.722;8.110;2023-12-28T00:09:23;5.20;99.90
7472;DHT22;3777;48.722;8.110;2023-12-28T00:11:50;5.20;99.90
7472;DHT22;3777;48.722;8.110;2023-12-28T00:14:17;5.10;99.90
7472;DHT22;3777;48.722;8.110;2023-12-28T00:16:44;5.10;99.90
7472;DHT22;3777;48.722;8.110;2023-12-28T00:19:11;5.10;99.90
7472;DHT22;3777;48.722;8.110;2023-12-28T00:21:38;5.10;99.90
7472;DHT22;3777;48.722;8.110;2023-12-28T00:24:07;5.10;99.90
7472;DHT22;3777;48.722;8.110;2023-12-28T00:26:34;5.00;99.90
7472;DHT22;3777;48.722;8.110;2023-12-28T00:29:01;5.00;99.90
7472;DHT22;3777;48.722;8.110;2023-12-28T00:31:27;5.00;99.90
7472;DHT22;3777;48.722;8.110;2023-12-28T00:33:54;5.00;99.90
7472;DHT22;3777;48.722;8.110;2023-12-28T00:36:21;4.90;99.90
7472;DHT22;3777;48.722;8.110;2023-12-28T00:38:48;4.90;99.90
7472;DHT22;3777;48.722;8.110;2023-12-28T00:41:17;4.90;99.90
7472;DHT22;3777;48.722;8.110;2023-12-28T00:43:44;4.80;99.90
7472;DHT22;3777;48.722;8.110;2023-12-28T00:46:11;4.80;99.90
7472;DHT22;3777;48.722;8.110;2023-12-28T00:48:38;4.80;99.90
7472;DHT22;3777;48.722;8.110;2023-12-28T00:51:05;4.80;99.90
7472;DHT22;3777;48.722;8.110;2023-12-28T00:53:31;4.80;99.90
7472;DHT22;3777;48.722;8.110;2023-12-28T00:55:58;4.80;99.90
7472;DHT22;3777;48.722;8.110;2023-12-28T00:58:27;4.80;99.90
7472;DHT22;3777;48.722;8.110;2023-12-28T01:00:54;4.80;99.90
7472;DHT22;3777;48.722;8.110;2023-12-28T01:03:22;4.80;99.90
7472;DHT22;3777;48.722;8.110;2023-12-28T01:05:50;4.80;99.90
7472;DHT22;3777;48.722;8.110;2023-12-28T01:08:18;4.80;99.90
7472;DHT22;3777;48.722;8.110;2023-12-28T01:10:45;4.80;99.90
7472;DHT22;3777;48.722;8.110;2023-12-28T01:13:12;4.90;99.90
7472;DHT22;3777;48.722;8.110;2023-12-28T01:15:40;4.90;99.90
7472;DHT22;3777;48.722;8.110;2023-12-28T01:18:07;5.00;99.90
7472;DHT22;3777;48.722;8.110;2023-12-28T01:20:34;5.00;99.90
7472;DHT22;3777;48.722;8.110;2023-12-28T01:23:01;5.00;99.90
7472;DHT22;3777;48.722;8.110;2023-12-28T01:25:28;5.10;99.90
7472;DHT22;3777;48.722;8.110;2023-12-28T01:27:55;5.10;99.90
7472;DHT22;3777;48.722;8.110;2023-12-28T01:30:22;5.10;99.90
7472;DHT22;3777;48.722;8.110;2023-12-28T01:32:51;5.20;99.90
7472;DHT22;3777;48.722;8.110;2023-12-28T01:35:17;5.30;99.90
7472;DHT22;3777;48.722;8.110;2023-12-28T01:37:44;5.30;99.90
7472;DHT22;3777;48.722;8.110;2023-12-28T01:40:11;5.40;99.90
7472;DHT22;3777;48.722;8.110;2023-12-28T01:42:38;5.40;99.90
7472;DHT22;3777;48.722;8.110;2023-12-28T01:45:06;5.60;99.90
7472;DHT22;3777;48.722;8.110;2023-12-28T01:47:33;5.60;99.90
7472;DHT22;3777;48.722;8.110;2023-12-28T01:50:02;5.70;99.90
7472;DHT22;3777;48.722;8.110;2023-12-28T01:52:29;5.80;99.90
7472;DHT22;3777;48.722;8.110;2023-12-28T01:54:57;5.80;99.90
7472;DHT22;3777;48.722;8.110;2023-12-28T01:57:24;5.90;99.90
7472;DHT22;3777;48.722;8.110;2023-12-28T01:59:52;6.00;99.90
7472;DHT22;3777;48.722;8.110;2023-12-28T02:02:21;6.10;99.90
7472;DHT22;3777;48.722;8.110;2023-12-28T02:04:49;6.20;99.90
7472;DHT22;3777;48.722;8.110;2023-12-28T02:07:18;6.40;99.90
7472;DHT22;3777;48.722;8.110;2023-12-28T02:09:47;6.50;99.90
7472;DHT22;3777;48.722;8.110;2023-12-28T02:12:14;6.70;99.90
7472;DHT22;3777;48.722;8.110;2023-12-28T02:14:41;6.90;99.90
7472;DHT22;3777;48.722;8.110;2023-12-28T02:17:15;7.00;99.90
7472;DHT22;3777;48.722;8.110;2023-12-28T02:19:47;7.20;99.90
7472;DHT22;3777;48.722;8.110;2023-12-28T02:22:18;7.30;99.90
7472;DHT22;3777;48.722;8.110;2023-12-28T02:25:04;7.60;99.90
7472;DHT22;3777;48.722;8.110;2023-12-28T02:27:32;7.80;99.90
7472;DHT22;3777;48.722;8.110;2023-12-28T02:30:00;8.00;99.90
7472;DHT22;3777;48.722;8.110;2023-12-28T02:32:35;8.20;99.90
7472;DHT22;3777;48.722;8.110;2023-12-28T02:35:13;8.40;99.90
7472;DHT22;3777;48.722;8.110;2023-12-28T02:37:43;8.60;99.90
7472;DHT22;3777;48.722;8.110;2023-12-28T02:40:15;8.80;99.90
7472;DHT22;3777;48.722;8.110;2023-12-28T02:42:42;8.90;99.90
7472;DHT22;3777;48.722;8.110;2023-12-28T02:45:09;9.00;99.90
7472;DHT22;3777;48.722;8.110;2023-12-28T02:47:36;9.10;99.90
7472;DHT22;3777;48.722;8.110;2023-12-28T02:50:04;9.20;99.90
7472;DHT22;3777;48.722;8.110;2023-12-28T02:52:31;9.30;99.90
7472;DHT22;3777;48.722;8.110;2023-12-28T02:54:58;9.40;99.90
7472;DHT22;3777;48.722;8.110;2023-12-28T02:57:26;9.50;99.90
7472;DHT22;3777;48.722;8.110;2023-12-28T02:59:53;9.50;99.90
7472;DHT22;3777;48.722;8.110;2023-12-28T03:02:22;9.60;99.90
7472;DHT22;3777;48.722;8.110;2023-12-28T03:04:49;9.70;99.90
7472;DHT22;3777;48.722;8.110;2023-12-28T03:07:16;9.80;99.90
7472;DHT22;3777;48.722;8.110;2023-12-28T03:09:43;9.90;99.90
7472;DHT22;3777;48.722;8.110;2023-12-28T03:12:10;9.90;99.90
7472;DHT22;3777;48.722;8.110;2023-12-28T03:14:38;10.00;99.90
7472;DHT22;3777;48.722;8.110;2023-12-28T03:17:05;10.20;99.90
7472;DHT22;3777;48.722;8.110;2023-12-28T03:19:32;10.20;99.90
7472;DHT22;3777;48.722;8.110;2023-12-28T03:21:59;10.30;99.90
7472;DHT22;3777;48.722;8.110;2023-12-28T03:24:26;10.40;99.90
7472;DHT22;3777;48.722;8.110;2023-12-28T03:26:53;10.50;99.90
7472;DHT22;3777;48.722;8.110;2023-12-28T03:29:20;10.60;99.90
7472;DHT22;3777;48.722;8.110;2023-12-28T03:31:48;10.60;99.90
7472;DHT22;3777;48.722;8.110;2023-12-28T03:34:15;10.70;99.90
7472;DHT22;3777;48.722;8.110;2023-12-28T03:36:43;10.80;99.90
7472;DHT22;3777;48.722;8.110;2023-12-28T03:39:10;10.90;99.90
7472;DHT22;3777;48.722;8.110;2023-12-28T03:41:37;11.00;99.90
7472;DHT22;3777;48.722;8.110;2023-12-28T03:44:04;11.00;99.90
7472;DHT22;3777;48.722;8.110;2023-12-28T03:46:31;11.10;99.90
7472;DHT22;3777;48.722;8.110;2023-12-28T03:48:59;11.10;99.90
7472;DHT22;3777;48.722;8.110;2023-12-28T03:51:26;11.20;99.90
7472;DHT22;3777;48.722;8.110;2023-12-28T03:53:53;11.20;99.90
7472;DHT22;3777;48.722;8.110;2023-12-28T03:56:22;11.30;99.90
7472;DHT22;3777;48.722;8.110;2023-12-28T03:58:49;11.30;99.90
7472;DHT22;3777;48.722;8.110;2023-12-28T04:01:17;11.30;99.90
7472;DHT22;3777;48.722;8.110;2023-12-28T04:03:44;11.30;99.90
7472;DHT22;3777;48.722;8.110;2023-12-28T04:06:13;11.30;99.90
7472;DHT22;3777;48.722;8.110;2023-12-28T04:08:40;11.40;99.90
7472;DHT22;3777;48.722;8.110;2023-12-28T04:11:07;11.50;99.90
7472;DHT22;3777;48.722;8.110;2023-12-28T04:13:35;11.60;99.90
7472;DHT22;3777;48.722;8.110;2023-12-28T04:16:02;11.60;99.90
7472;DHT22;3777;48.722;8.110;2023-12-28T04:18:30;11.70;99.90
7472;DHT22;3777;48.722;8.110;2023-12-28T04:20:56;11.70;99.90
7472;DHT22;3777;48.722;8.110;2023-12-28T04:23:25;11.80;99.90
7472;DHT22;3777;48.722;8.110;2023-12-28T04:25:52;11.90;99.90
7472;DHT22;3777;48.722;8.110;2023-12-28T04:28:19;11.90;99.90
7472;DHT22;3777;48.722;8.110;2023-12-28T04:30:46;12.00;99.90
7472;DHT22;3777;48.722;8.110;2023-12-28T04:33:17;12.00;99.90
7472;DHT22;3777;48.722;8.110;2023-12-28T04:35:45;12.00;99.90
7472;DHT22;3777;48.722;8.110;2023-12-28T04:38:12;12.00;99.90
7472;DHT22;3777;48.722;8.110;2023-12-28T04:40:42;12.00;99.90
7472;DHT22;3777;48.722;8.110;2023-12-28T04:43:08;12.00;99.90
7472;DHT22;3777;48.722;8.110;2023-12-28T04:45:34;12.00;99.90
7472;DHT22;3777;48.722;8.110;2023-12-28T04:48:02;12.00;99.90
7472;DHT22;3777;48.722;8.110;2023-12-28T04:50:28;12.00;99.90
7472;DHT22;3777;48.722;8.110;2023-12-28T04:52:55;12.00;99.90
7472;DHT22;3777;48.722;8.110;2023-12-28T04:55:22;12.00;99.90
7472;DHT22;3777;48.722;8.110;2023-12-28T04:57:51;12.00;99.90
7472;DHT22;3777;48.722;8.110;2023-12-28T05:00:18;12.00;99.90
7472;DHT22;3777;48.722;8.110;2023-12-28T05:02:45;12.00;99.90
7472;DHT22;3777;48.722;8.110;2023-12-28T05:05:12;12.00;99.90
7472;DHT22;3777;48.722;8.110;2023-12-28T05:07:39;12.00;99.90
7472;DHT22;3777;48.722;8.110;2023-12-28T05:10:07;12.00;99.90
7472;DHT22;3777;48.722;8.110;2023-12-28T05:12:34;12.00;99.90
7472;DHT22;3777;48.722;8.110;2023-12-28T05:15:03;12.10;99.90
7472;DHT22;3777;48.722;8.110;2023-12-28T05:17:30;12.00;99.90
7472;DHT22;3777;48.722;8.110;2023-12-28T05:19:57;12.00;99.90
7472;DHT22;3777;48.722;8.110;2023-12-28T05:22:24;12.00;99.90
7472;DHT22;3777;48.722;8.110;2023-12-28T05:24:53;12.00;99.90
7472;DHT22;3777;48.722;8.110;2023-12-28T05:27:20;12.00;99.90
7472;DHT22;3777;48.722;8.110;2023-12-28T05:29:47;11.90;99.90
7472;DHT22;3777;48.722;8.110;2023-12-28T05:32:15;11.90;99.90
7472;DHT22;3777;48.722;8.110;2023-12-28T05:34:42;11.90;99.90
7472;DHT22;3777;48.722;8.110;2023-12-28T05:37:09;11.90;99.90
7472;DHT22;3777;48.722;8.110;2023-12-28T05:39:36;11.90;99.90
7472;DHT22;3777;48.722;8.110;2023-12-28T05:42:03;11.80;99.90
7472;DHT22;3777;48.722;8.110;2023-12-28T05:44:30;11.80;99.90
7472;DHT22;3777;48.722;8.110;2023-12-28T05:46:57;11.80;99.90
7472;DHT22;3777;48.722;8.110;2023-12-28T05:49:25;11.80;99.90
7472;DHT22;3777;48.722;8.110;2023-12-28T05:51:54;11.80;99.90
7472;DHT22;3777;48.722;8.110;2023-12-28T05:54:21;11.80;99.90
7472;DHT22;3777;48.722;8.110;2023-12-28T05:56:47;11.80;99.90
7472;DHT22;3777;48.722;8.110;2023-12-28T05:59:14;11.80;99.90
7472;DHT22;3777;48.722;8.110;2023-12-28T06:01:43;11.80;99.90
7472;DHT22;3777;48.722;8.110;2023-12-28T06:04:10;11.90;99.90
7472;DHT22;3777;48.722;8.110;2023-12-28T06:06:39;11.90;99.90
7472;DHT22;3777;48.722;8.110;2023-12-28T06:09:06;11.90;99.90
7472;DHT22;3777;48.722;8.110;2023-12-28T06:11:33;11.90;99.90
7472;DHT22;3777;48.722;8.110;2023-12-28T06:14:00;11.90;99.90
7472;DHT22;3777;48.722;8.110;2023-12-28T06:16:28;11.90;99.90
7472;DHT22;3777;48.722;8.110;2023-12-28T06:18:58;11.90;99.90
7472;DHT22;3777;48.722;8.110;2023-12-28T06:21:25;11.90;99.90
7472;DHT22;3777;48.722;8.110;2023-12-28T06:23:54;12.00;99.90
7472;DHT22;3777;48.722;8.110;2023-12-28T06:26:21;12.00;99.90
7472;DHT22;3777;48.722;8.110;2023-12-28T06:28:47;12.00;99.90
7472;DHT22;3777;48.722;8.110;2023-12-28T06:31:14;12.00;99.90
7472;DHT22;3777;48.722;8.110;2023-12-28T06:33:41;12.00;99.90
7472;DHT22;3777;48.722;8.110;2023-12-28T06:36:10;12.00;99.90
7472;DHT22;3777;48.722;8.110;2023-12-28T06:38:37;12.00;99.90
7472;DHT22;3777;48.722;8.110;2023-12-28T06:41:11;12.00;99.90
7472;DHT22;3777;48.722;8.110;2023-12-28T06:43:38;12.00;99.90
7472;DHT22;3777;48.722;8.110;2023-12-28T06:46:05;12.10;99.90
7472;DHT22;3777;48.722;8.110;2023-12-28T06:48:32;12.10;99.90
7472;DHT22;3777;48.722;8.110;2023-12-28T06:50:59;12.10;99.90
7472;DHT22;3777;48.722;8.110;2023-12-28T06:53:26;12.10;99.90
7472;DHT22;3777;48.722;8.110;2023-12-28T06:55:53;12.10;99.90
7472;DHT22;3777;48.722;8.110;2023-12-28T06:58:21;12.00;99.90
7472;DHT22;3777;48.722;8.110;2023-12-28T07:00:48;12.10;99.90
7472;DHT22;3777;48.722;8.110;2023-12-28T07:03:15;12.00;99.90
7472;DHT22;3777;48.722;8.110;2023-12-28T07:05:42;12.00;99.90
7472;DHT22;3777;48.722;8.110;2023-12-28T07:08:09;12.00;99.90
7472;DHT22;3777;48.722;8.110;2023-12-28T07:10:36;12.00;99.90
7472;DHT22;3777;48.722;8.110;2023-12-28T07:13:03;12.00;99.90
7472;DHT22;3777;48.722;8.110;2023-12-28T07:15:31;12.00;99.90
7472;DHT22;3777;48.722;8.110;2023-12-28T07:17:58;12.00;99.90
7472;DHT22;3777;48.722;8.110;2023-12-28T07:20:25;12.00;99.90
7472;DHT22;3777;48.722;8.110;2023-12-28T07:22:55;12.00;99.90
7472;DHT22;3777;48.722;8.110;2023-12-28T07:25:22;12.00;99.90
7472;DHT22;3777;48.722;8.110;2023-12-28T07:27:49;12.00;99.90
7472;DHT22;3777;48.722;8.110;2023-12-28T07:30:16;12.00;99.90
7472;DHT22;3777;48.722;8.110;2023-12-28T07:32:44;12.10;99.90
7472;DHT22;3777;48.722;8.110;2023-12-28T07:35:11;12.10;99.90
7472;DHT22;3777;48.722;8.110;2023-12-28T07:37:41;12.10;99.90
7472;DHT22;3777;48.722;8.110;2023-12-28T07:40:08;12.10;99.90
7472;DHT22;3777;48.722;8.110;2023-12-28T07:42:35;12.10;99.90
7472;DHT22;3777;48.722;8.110;2023-12-28T07:45:03;12.10;99.90
7472;DHT22;3777;48.722;8.110;2023-12-28T07:47:30;12.10;99.90
7472;DHT22;3777;48.722;8.110;2023-12-28T07:49:58;12.00;99.90
7472;DHT22;3777;48.722;8.110;2023-12-28T07:52:26;12.00;99.90
7472;DHT22;3777;48.722;8.110;2023-12-28T07:54:53;12.00;99.90
7472;DHT22;3777;48.722;8.110;2023-12-28T07:57:21;12.00;99.90
7472;DHT22;3777;48.722;8.110;2023-12-28T07:59:48;11.90;99.90
7472;DHT22;3777;48.722;8.110;2023-12-28T08:02:15;11.90;99.90
7472;DHT22;3777;48.722;8.110;2023-12-28T08:04:41;11.90;99.90
7472;DHT22;3777;48.722;8.110;2023-12-28T08:07:10;11.90;99.90
7472;DHT22;3777;48.722;8.110;2023-12-28T08:09:37;11.80;99.90
7472;DHT22;3777;48.722;8.110;2023-12-28T08:12:05;11.80;99.90
7472;DHT22;3777;48.722;8.110;2023-12-28T08:14:32;11.80;99.90
7472;DHT22;3777;48.722;8.110;2023-12-28T08:16:59;11.80;99.90
7472;DHT22;3777;48.722;8.110;2023-12-28T08:19:26;11.70;99.90
7472;DHT22;3777;48.722;8.110;2023-12-28T08:21:52;11.60;99.90
7472;DHT22;3777;48.722;8.110;2023-12-28T08:24:20;11.60;99.90
7472;DHT22;3777;48.722;8.110;2023-12-28T08:26:47;11.60;99.90
7472;DHT22;3777;48.722;8.110;2023-12-28T08:29:14;11.60;99.90
7472;DHT22;3777;48.722;8.110;2023-12-28T08:31:41;11.50;99.90
7472;DHT22;3777;48.722;8.110;2023-12-28T08:34:08;11.30;99.90
7472;DHT22;3777;48.722;8.110;2023-12-28T08:36:35;11.30;99.90
7472;DHT22;3777;48.722;8.110;2023-12-28T08:39:02;11.10;99.90
7472;DHT22;3777;48.722;8.110;2023-12-28T08:41:30;11.10;99.90
7472;DHT22;3777;48.722;8.110;2023-12-28T08:43:57;11.00;99.90
7472;DHT22;3777;48.722;8.110;2023-12-28T08:46:25;11.00;99.90
7472;DHT22;3777;48.722;8.110;2023-12-28T08:48:52;11.10;99.90
7472;DHT22;3777;48.722;8.110;2023-12-28T08:51:19;11.10;99.90
7472;DHT22;3777;48.722;8.110;2023-12-28T08:53:46;11.10;99.90
7472;DHT22;3777;48.722;8.110;2023-12-28T08:56:15;11.20;99.90
7472;DHT22;3777;48.722;8.110;2023-12-28T08:58:44;11.20;99.90
7472;DHT22;3777;48.722;8.110;2023-12-28T09:01:17;11.10;99.90
7472;DHT22;3777;48.722;8.110;2023-12-28T09:03:44;11.00;99.90
7472;DHT22;3777;48.722;8.110;2023-12-28T09:06:11;11.00;99.90
7472;DHT22;3777;48.722;8.110;2023-12-28T09:08:41;11.10;99.90
7472;DHT22;3777;48.722;8.110;2023-12-28T09:11:10;11.00;99.90
7472;DHT22;3777;48.722;8.110;2023-12-28T09:13:37;11.00;99.90
7472;DHT22;3777;48.722;8.110;2023-12-28T09:16:07;11.10;99.90
7472;DHT22;3777;48.722;8.110;2023-12-28T09:18:34;11.10;99.90
7472;DHT22;3777;48.722;8.110;2023-12-28T09:21:03;11.00;99.90
7472;DHT22;3777;48.722;8.110;2023-12-28T09:23:30;11.00;99.90
7472;DHT22;3777;48.722;8.110;2023-12-28T09:25:57;11.00;99.90
7472;DHT22;3777;48.722;8.110;2023-12-28T09:28:30;10.90;99.90
7472;DHT22;3777;48.722;8.110;2023-12-28T09:30:57;10.90;99.90
7472;DHT22;3777;48.722;8.110;2023-12-28T09:33:25;10.90;99.90
7472;DHT22;3777;48.722;8.110;2023-12-28T09:35:52;10.80;99.90
7472;DHT22;3777;48.722;8.110;2023-12-28T09:38:20;10.80;99.90
7472;DHT22;3777;48.722;8.110;2023-12-28T09:40:48;10.80;99.90
7472;DHT22;3777;48.722;8.110;2023-12-28T09:43:24;10.90;99.90
7472;DHT22;3777;48.722;8.110;2023-12-28T09:45:54;10.80;99.90
7472;DHT22;3777;48.722;8.110;2023-12-28T09:48:21;10.70;99.90
7472;DHT22;3777;48.722;8.110;2023-12-28T09:50:51;10.80;99.90
7472;DHT22;3777;48.722;8.110;2023-12-28T09:53:20;10.80;99.90
7472;DHT22;3777;48.722;8.110;2023-12-28T09:55:49;10.80;99.90
7472;DHT22;3777;48.722;8.110;2023-12-28T09:58:20;10.80;99.90
7472;DHT22;3777;48.722;8.110;2023-12-28T10:00:48;11.00;99.90
7472;DHT22;3777;48.722;8.110;2023-12-28T10:03:16;11.10;99.90
7472;DHT22;3777;48.722;8.110;2023-12-28T10:05:43;11.10;99.90
7472;DHT22;3777;48.722;8.110;2023-12-28T10:08:13;11.20;99.90
7472;DHT22;3777;48.722;8.110;2023-12-28T10:10:40;11.30;99.90
7472;DHT22;3777;48.722;8.110;2023-12-28T10:13:07;11.40;99.90
7472;DHT22;3777;48.722;8.110;2023-12-28T10:15:35;11.50;99.90
7472;DHT22;3777;48.722;8.110;2023-12-28T10:18:03;11.50;99.90
7472;DHT22;3777;48.722;8.110;2023-12-28T10:20:31;11.60;99.90
7472;DHT22;3777;48.722;8.110;2023-12-28T10:22:58;11.60;99.90
7472;DHT22;3777;48.722;8.110;2023-12-28T10:25:27;11.60;99.90
7472;DHT22;3777;48.722;8.110;2023-12-28T10:27:54;11.70;99.90
7472;DHT22;3777;48.722;8.110;2023-12-28T10:30:21;11.70;99.90
7472;DHT22;3777;48.722;8.110;2023-12-28T10:32:48;11.70;99.90
7472;DHT22;3777;48.722;8.110;2023-12-28T10:35:18;11.70;99.90
7472;DHT22;3777;48.722;8.110;2023-12-28T10:37:46;11.70;99.90
7472;DHT22;3777;48.722;8.110;2023-12-28T10:40:21;11.70;99.90
7472;DHT22;3777;48.722;8.110;2023-12-28T10:42:52;11.70;99.90
7472;DHT22;3777;48.722;8.110;2023-12-28T10:45:25;11.70;99.90
7472;DHT22;3777;48.722;8.110;2023-12-28T10:47:56;11.70;99.90
7472;DHT22;3777;48.722;8.110;2023-12-28T10:50:27;11.60;99.90
7472;DHT22;3777;48.722;8.110;2023-12-28T10:53:00;11.60;99.90
7472;DHT22;3777;48.722;8.110;2023-12-28T10:55:37;11.60;99.90
7472;DHT22;3777;48.722;8.110;2023-12-28T10:58:11;11.60;99.90
7472;DHT22;3777;48.722;8.110;2023-12-28T11:00:43;11.60;99.90
7472;DHT22;3777;48.722;8.110;2023-12-28T11:03:20;11.60;99.90
7472;DHT22;3777;48.722;8.110;2023-12-28T11:05:51;11.60;99.90
7472;DHT22;3777;48.722;8.110;2023-12-28T11:08:19;11.60;99.90
7472;DHT22;3777;48.722;8.110;2023-12-28T11:10:47;11.50;99.90
7472;DHT22;3777;48.722;8.110;2023-12-28T11:13:17;11.50;99.90
7472;DHT22;3777;48.722;8.110;2023-12-28T11:15:45;11.50;99.90
7472;DHT22;3777;48.722;8.110;2023-12-28T11:18:14;11.50;99.90
7472;DHT22;3777;48.722;8.110;2023-12-28T11:20:42;11.50;99.90
7472;DHT22;3777;48.722;8.110;2023-12-28T11:23:10;11.50;99.90
7472;DHT22;3777;48.722;8.110;2023-12-28T11:25:38;11.50;99.90
7472;DHT22;3777;48.722;8.110;2023-12-28T11:28:09;11.50;99.90
7472;DHT22;3777;48.722;8.110;2023-12-28T11:30:38;11.50;99.90
7472;DHT22;3777;48.722;8.110;2023-12-28T11:33:05;11.40;99.90
7472;DHT22;3777;48.722;8.110;2023-12-28T11:35:34;11.50;99.90
7472;DHT22;3777;48.722;8.110;2023-12-28T11:38:03;11.50;99.90
7472;DHT22;3777;48.722;8.110;2023-12-28T11:40:40;11.50;99.90
7472;DHT22;3777;48.722;8.110;2023-12-28T11:43:15;11.50;99.90
7472;DHT22;3777;48.722;8.110;2023-12-28T11:45:49;11.40;99.90
7472;DHT22;3777;48.722;8.110;2023-12-28T11:48:23;11.40;99.90
7472;DHT22;3777;48.722;8.110;2023-12-28T11:50:54;11.50;99.90
7472;DHT22;3777;48.722;8.110;2023-12-28T11:53:23;11.50;99.90
7472;DHT22;3777;48.722;8.110;2023-12-28T11:55:50;11.50;99.90
7472;DHT22;3777;48.722;8.110;2023-12-28T11:58:17;11.50;99.90
7472;DHT22;3777;48.722;8.110;2023-12-28T12:00:44;11.40;99.90
7472;DHT22;3777;48.722;8.110;2023-12-28T12:03:13;11.50;99.90
7472;DHT22;3777;48.722;8.110;2023-12-28T12:05:40;11.50;99.90
7472;DHT22;3777;48.722;8.110;2023-12-28T12:08:09;11.40;99.90
7472;DHT22;3777;48.722;8.110;2023-12-28T12:10:39;11.40;99.90
7472;DHT22;3777;48.722;8.110;2023-12-28T12:13:06;11.40;99.90
7472;DHT22;3777;48.722;8.110;2023-12-28T12:15:33;11.40;99.90
7472;DHT22;3777;48.722;8.110;2023-12-28T12:18:00;11.40;99.90
7472;DHT22;3777;48.722;8.110;2023-12-28T12:20:29;11.40;99.90
7472;DHT22;3777;48.722;8.110;2023-12-28T12:22:58;11.30;99.90
7472;DHT22;3777;48.722;8.110;2023-12-28T12:25:25;11.30;99.90
7472;DHT22;3777;48.722;8.110;2023-12-28T12:27:53;11.40;99.90
7472;DHT22;3777;48.722;8.110;2023-12-28T12:30:20;11.40;99.90
7472;DHT22;3777;48.722;8.110;2023-12-28T12:32:48;11.30;99.90
7472;DHT22;3777;48.722;8.110;2023-12-28T12:35:18;11.30;99.90
7472;DHT22;3777;48.722;8.110;2023-12-28T12:37:48;11.30;99.90
7472;DHT22;3777;48.722;8.110;2023-12-28T12:40:17;11.20;99.90
7472;DHT22;3777;48.722;8.110;2023-12-28T12:42:52;11.10;99.90
7472;DHT22;3777;48.722;8.110;2023-12-28T12:45:20;11.10;99.90
7472;DHT22;3777;48.722;8.110;2023-12-28T12:47:48;10.90;99.90
7472;DHT22;3777;48.722;8.110;2023-12-28T12:50:15;10.80;99.90
7472;DHT22;3777;48.722;8.110;2023-12-28T12:52:42;10.60;99.90
7472;DHT22;3777;48.722;8.110;2023-12-28T12:55:12;10.50;99.90
7472;DHT22;3777;48.722;8.110;2023-12-28T12:57:41;10.40;99.90
7472;DHT22;3777;48.722;8.110;2023-12-28T13:00:13;10.40;99.90
7472;DHT22;3777;48.722;8.110;2023-12-28T13:02:40;10.30;99.90
7472;DHT22;3777;48.722;8.110;2023-12-28T13:05:07;10.20;99.90
7472;DHT22;3777;48.722;8.110;2023-12-28T13:07:34;10.10;99.90
7472;DHT22;3777;48.722;8.110;2023-12-28T13:10:01;10.10;99.90
7472;DHT22;3777;48.722;8.110;2023-12-28T13:12:29;10.20;99.90
7472;DHT22;3777;48.722;8.110;2023-12-28T13:14:56;10.20;99.90
7472;DHT22;3777;48.722;8.110;2023-12-28T13:17:23;10.20;99.90
7472;DHT22;3777;48.722;8.110;2023-12-28T13:19:50;10.10;99.90
7472;DHT22;3777;48.722;8.110;2023-12-28T13:22:17;10.20;99.90
7472;DHT22;3777;48.722;8.110;2023-12-28T13:24:44;10.10;99.90
7472;DHT22;3777;48.722;8.110;2023-12-28T13:27:11;10.10;99.90
7472;DHT22;3777;48.722;8.110;2023-12-28T13:29:41;9.90;99.90
7472;DHT22;3777;48.722;8.110;2023-12-28T13:32:09;9.80;99.90
7472;DHT22;3777;48.722;8.110;2023-12-28T13:34:36;9.80;99.90
7472;DHT22;3777;48.722;8.110;2023-12-28T13:37:05;9.90;99.90
7472;DHT22;3777;48.722;8.110;2023-12-28T13:39:34;9.90;99.90
7472;DHT22;3777;48.722;8.110;2023-12-28T13:42:05;9.90;99.90
7472;DHT22;3777;48.722;8.110;2023-12-28T13:44:32;9.80;99.90
7472;DHT22;3777;48.722;8.110;2023-12-28T13:47:01;9.80;99.90
7472;DHT22;3777;48.722;8.110;2023-12-28T13:49:28;9.90;99.90
7472;DHT22;3777;48.722;8.110;2023-12-28T13:51:55;9.80;99.90
7472;DHT22;3777;48.722;8.110;2023-12-28T13:54:23;9.80;99.90
7472;DHT22;3777;48.722;8.110;2023-12-28T13:56:50;9.80;99.90
7472;DHT22;3777;48.722;8.110;2023-12-28T13:59:25;9.80;99.90
7472;DHT22;3777;48.722;8.110;2023-12-28T14:01:52;9.90;99.90
7472;DHT22;3777;48.722;8.110;2023-12-28T14:04:20;9.90;99.90
7472;DHT22;3777;48.722;8.110;2023-12-28T14:06:47;9.90;99.90
7472;DHT22;3777;48.722;8.110;2023-12-28T14:09:14;9.80;99.90
7472;DHT22;3777;48.722;8.110;2023-12-28T14:11:45;9.80;99.90
7472;DHT22;3777;48.722;8.110;2023-12-28T14:14:12;9.90;99.90
7472;DHT22;3777;48.722;8.110;2023-12-28T14:16:39;10.00;99.90
7472;DHT22;3777;48.722;8.110;2023-12-28T14:19:06;10.00;99.90
7472;DHT22;3777;48.722;8.110;2023-12-28T14:21:37;10.10;99.90
7472;DHT22;3777;48.722;8.110;2023-12-28T14:24:05;10.00;99.90
7472;DHT22;3777;48.722;8.110;2023-12-28T14:26:33;10.00;99.90
7472;DHT22;3777;48.722;8.110;2023-12-28T14:29:00;10.10;99.90
7472;DHT22;3777;48.722;8.110;2023-12-28T14:31:30;10.20;99.90
7472;DHT22;3777;48.722;8.110;2023-12-28T14:33:57;10.30;99.90
7472;DHT22;3777;48.722;8.110;2023-12-28T14:36:30;10.40;99.90
7472;DHT22;3777;48.722;8.110;2023-12-28T14:38:59;10.50;99.90
7472;DHT22;3777;48.722;8.110;2023-12-28T14:41:27;10.60;99.90
7472;DHT22;3777;48.722;8.110;2023-12-28T14:43:55;10.60;99.90
7472;DHT22;3777;48.722;8.110;2023-12-28T14:46:24;10.60;99.90
7472;DHT22;3777;48.722;8.110;2023-12-28T14:48:51;10.60;99.90
7472;DHT22;3777;48.722;8.110;2023-12-28T14:51:18;10.60;99.90
7472;DHT22;3777;48.722;8.110;2023-12-28T14:53:45;10.60;99.90
7472;DHT22;3777;48.722;8.110;2023-12-28T14:56:13;10.60;99.90
7472;DHT22;3777;48.722;8.110;2023-12-28T14:58:41;10.60;99.90
7472;DHT22;3777;48.722;8.110;2023-12-28T15:01:10;10.70;99.90
7472;DHT22;3777;48.722;8.110;2023-12-28T15:03:37;10.60;99.90
7472;DHT22;3777;48.722;8.110;2023-12-28T15:06:10;10.60;99.90
7472;DHT22;3777;48.722;8.110;2023-12-28T15:08:37;10.50;99.90
7472;DHT22;3777;48.722;8.110;2023-12-28T15:11:05;10.50;99.90
7472;DHT22;3777;48.722;8.110;2023-12-28T15:13:35;10.50;99.90
7472;DHT22;3777;48.722;8.110;2023-12-28T15:16:02;10.50;99.90
7472;DHT22;3777;48.722;8.110;2023-12-28T15:18:30;10.50;99.90
7472;DHT22;3777;48.722;8.110;2023-12-28T15:20:58;10.50;99.90
7472;DHT22;3777;48.722;8.110;2023-12-28T15:23:25;10.50;99.90
7472;DHT22;3777;48.722;8.110;2023-12-28T15:25:53;10.50;99.90
7472;DHT22;3777;48.722;8.110;2023-12-28T15:28:20;10.40;99.90
7472;DHT22;3777;48.722;8.110;2023-12-28T15:30:50;10.50;99.90
7472;DHT22;3777;48.722;8.110;2023-12-28T15:33:17;10.50;99.90
7472;DHT22;3777;48.722;8.110;2023-12-28T15:35:47;10.50;99.90
7472;DHT22;3777;48.722;8.110;2023-12-28T15:38:14;10.50;99.90
7472;DHT22;3777;48.722;8.110;2023-12-28T15:40:41;10.60;99.90
7472;DHT22;3777;48.722;8.110;2023-12-28T15:43:09;10.60;99.90
7472;DHT22;3777;48.722;8.110;2023-12-28T15:45:36;10.60;99.90
7472;DHT22;3777;48.722;8.110;2023-12-28T15:48:05;10.60;99.90
7472;DHT22;3777;48.722;8.110;2023-12-28T15:50:32;10.60;99.90
7472;DHT22;3777;48.722;8.110;2023-12-28T15:52:59;10.60;99.90
7472;DHT22;3777;48.722;8.110;2023-12-28T15:55:26;10.60;99.90
7472;DHT22;3777;48.722;8.110;2023-12-28T15:57:53;10.60;99.90
7472;DHT22;3777;48.722;8.110;2023-12-28T16:00:20;10.60;99.90
7472;DHT22;3777;48.722;8.110;2023-12-28T16:02:49;10.60;99.90
7472;DHT22;3777;48.722;8.110;2023-12-28T16:05:18;10.60;99.90
7472;DHT22;3777;48.722;8.110;2023-12-28T16:07:45;10.60;99.90
7472;DHT22;3777;48.722;8.110;2023-12-28T16:10:14;10.60;99.90